Time;durP1;ratioP1;P1;durP2;ratioP2;P2;SDS_P1;SDS_P2;PMS_P1;PMS_P2;Temp;Humidity;BMP_temperature;BMP_pressure;BME280_temperature;BME280_humidity;BME280_pressure;Samples;Min_cycle;Max_cycle;Signal;HPM_P1;HPM_P2
2023/08/05 00:00:41;;;;;;;;;;;13.70;64.20;;;;;;4125603;28;19914;-84
2023/08/05 00:02:42;;;;;;;;;;;13.60;64.20;;;;;;4139739;28;19964;-85
2023/08/05 00:04:42;;;;;;;;;;;13.70;64.20;;;;;;4126904;28;19921;-84
2023/08/05 00:06:43;;;;;;;;;;;13.70;64.60;;;;;;4122792;28;19914;-84
2023/08/05 00:08:43;;;;;;;;;;;13.60;64.70;;;;;;4126233;28;20303;-85
2023/08/05 00:10:45;;;;;;;;;;;13.60;64.60;;;;;;4127257;28;19917;-84
2023/08/05 00:12:46;;;;;;;;;;;13.60;64.50;;;;;;4107209;28;20315;-86
2023/08/05 00:14:47;;;;;;;;;;;13.50;64.50;;;;;;4123661;28;19914;-84
2023/08/05 00:16:47;;;;;;;;;;;13.50;64.60;;;;;;4125109;28;19926;-84
2023/08/05 00:18:48;;;;;;;;;;;13.60;65.10;;;;;;4122608;28;19918;-84
2023/08/05 00:20:49;;;;;;;;;;;13.50;64.90;;;;;;4124474;28;19953;-85
2023/08/05 00:22:50;;;;;;;;;;;13.50;65.40;;;;;;4122296;28;19921;-84
2023/08/05 00:24:51;;;;;;;;;;;13.50;65.20;;;;;;4125595;28;19914;-85
2023/08/05 00:26:52;;;;;;;;;;;13.60;65.70;;;;;;4110763;28;19910;-83
2023/08/05 00:28:53;;;;;;;;;;;13.50;65.80;;;;;;4126979;28;20292;-84
2023/08/05 00:32:59;;;;;;;;;;;13.50;65.60;;;;;;4140655;28;19925;-85
2023/08/05 00:35:00;;;;;;;;;;;13.50;65.70;;;;;;4144490;28;19920;-84
2023/08/05 00:37:00;;;;;;;;;;;13.60;65.70;;;;;;4138609;28;20326;-84
2023/08/05 00:39:01;;;;;;;;;;;13.60;66.20;;;;;;4144804;28;20045;-84
2023/08/05 00:41:01;;;;;;;;;;;13.60;66.10;;;;;;4143293;28;19928;-84
2023/08/05 00:43:22;;;;;;;;;;;13.60;66.10;;;;;;4125147;28;20348;-88
2023/08/05 00:45:42;;;;;;;;;;;13.60;66.50;;;;;;4125768;28;19913;-84
2023/08/05 00:48:03;;;;;;;;;;;13.70;66.30;;;;;;4126203;28;19917;-84
2023/08/05 00:50:04;;;;;;;;;;;13.60;66.30;;;;;;4122969;28;19997;-84
2023/08/05 00:52:06;;;;;;;;;;;13.60;66.40;;;;;;4125370;28;20286;-84
2023/08/05 00:54:07;;;;;;;;;;;13.70;66.40;;;;;;4125519;28;19914;-85
2023/08/05 00:56:09;;;;;;;;;;;13.80;67.30;;;;;;4128168;28;20303;-85
2023/08/05 00:58:13;;;;;;;;;;;13.80;66.70;;;;;;4120006;28;19918;-86
2023/08/05 01:00:13;;;;;;;;;;;13.70;67.10;;;;;;4122084;28;19917;-84
2023/08/05 01:02:14;;;;;;;;;;;13.80;67.50;;;;;;4123914;28;19924;-84
2023/08/05 01:04:14;;;;;;;;;;;13.80;67.50;;;;;;4122645;28;19920;-84
2023/08/05 01:06:15;;;;;;;;;;;13.80;67.40;;;;;;4124856;28;20386;-86
2023/08/05 01:08:16;;;;;;;;;;;13.80;67.30;;;;;;4123078;28;19950;-84
2023/08/05 01:10:17;;;;;;;;;;;13.90;67.10;;;;;;4127474;28;19917;-85
2023/08/05 01:12:17;;;;;;;;;;;13.90;67.10;;;;;;4126000;28;20380;-87
2023/08/05 01:14:18;;;;;;;;;;;14.00;67.20;;;;;;4128080;28;19988;-84
2023/08/05 01:16:18;;;;;;;;;;;14.00;67.50;;;;;;4125567;28;19914;-84
2023/08/05 01:18:20;;;;;;;;;;;14.00;67.90;;;;;;4125849;28;19914;-87
2023/08/05 01:20:23;;;;;;;;;;;14.10;68.00;;;;;;4125177;28;19914;-84
2023/08/05 01:22:29;;;;;;;;;;;14.00;67.80;;;;;;4128262;28;19917;-86
2023/08/05 01:25:08;;;;;;;;;;;14.10;68.00;;;;;;4143403;28;20378;-84
2023/08/05 01:27:09;;;;;;;;;;;14.10;68.50;;;;;;4065934;29;20316;-87
2023/08/05 01:29:10;;;;;;;;;;;14.10;68.10;;;;;;4049617;29;20461;-84
2023/08/05 01:31:14;;;;;;;;;;;14.20;68.10;;;;;;4063402;29;19919;-85
2023/08/05 01:33:15;;;;;;;;;;;14.20;68.50;;;;;;4123826;28;20388;-85
2023/08/05 01:35:17;;;;;;;;;;;14.20;68.50;;;;;;4126643;28;19915;-85
2023/08/05 01:37:18;;;;;;;;;;;14.20;68.40;;;;;;4124840;28;20360;-84
2023/08/05 01:39:18;;;;;;;;;;;14.30;68.60;;;;;;4126575;28;19922;-84
2023/08/05 01:41:19;;;;;;;;;;;14.30;69.20;;;;;;4130533;28;19914;-85
2023/08/05 01:43:20;;;;;;;;;;;14.30;68.90;;;;;;4108212;28;19984;-84
2023/08/05 01:45:21;;;;;;;;;;;14.30;68.80;;;;;;4124485;28;20319;-88
2023/08/05 01:47:21;;;;;;;;;;;14.40;68.70;;;;;;4127608;28;19918;-88
2023/08/05 01:49:22;;;;;;;;;;;14.30;68.70;;;;;;4124873;28;19977;-84
2023/08/05 01:51:22;;;;;;;;;;;14.40;68.70;;;;;;4124894;28;19937;-84
2023/08/05 01:53:23;;;;;;;;;;;14.40;69.10;;;;;;4109409;28;19914;-85
2023/08/05 01:55:43;;;;;;;;;;;14.40;69.10;;;;;;4139219;28;19913;-84
2023/08/05 01:58:04;;;;;;;;;;;14.40;69.10;;;;;;4125704;28;20268;-88
2023/08/05 02:00:24;;;;;;;;;;;14.40;69.10;;;;;;4128803;28;20287;-85
2023/08/05 02:02:37;;;;;;;;;;;14.40;69.20;;;;;;4127604;28;19917;-84
2023/08/05 02:04:57;;;;;;;;;;;14.50;69.10;;;;;;4126312;28;20303;-84
2023/08/05 02:06:58;;;;;;;;;;;14.50;69.00;;;;;;4125112;28;19921;-84
2023/08/05 02:09:19;;;;;;;;;;;14.50;68.90;;;;;;4123946;28;19938;-87
2023/08/05 02:11:39;;;;;;;;;;;14.50;68.90;;;;;;4139472;28;20290;-86
2023/08/05 02:14:00;;;;;;;;;;;14.60;69.00;;;;;;4123194;28;20272;-84
2023/08/05 02:16:20;;;;;;;;;;;14.60;68.90;;;;;;4128821;28;20283;-84
2023/08/05 02:18:41;;;;;;;;;;;14.60;68.90;;;;;;4129831;28;20506;-84
2023/08/05 02:21:01;;;;;;;;;;;14.60;68.90;;;;;;4127541;28;20294;-88
2023/08/05 02:23:22;;;;;;;;;;;14.60;68.80;;;;;;4122244;28;20376;-84
2023/08/05 02:25:42;;;;;;;;;;;14.70;68.60;;;;;;4123263;28;20375;-85
2023/08/05 02:28:03;;;;;;;;;;;14.70;68.60;;;;;;4123187;28;20427;-85
2023/08/05 02:30:24;;;;;;;;;;;14.70;68.60;;;;;;4122298;28;20344;-84
2023/08/05 02:32:44;;;;;;;;;;;14.70;68.70;;;;;;4124036;28;20284;-87
2023/08/05 02:35:05;;;;;;;;;;;14.70;68.70;;;;;;4121759;28;20360;-84
2023/08/05 02:37:26;;;;;;;;;;;14.70;68.80;;;;;;4124627;28;20332;-84
2023/08/05 02:39:46;;;;;;;;;;;14.70;69.40;;;;;;4123765;28;20358;-85
2023/08/05 02:42:07;;;;;;;;;;;14.80;69.20;;;;;;4129492;28;20330;-85
2023/08/05 02:44:27;;;;;;;;;;;14.70;69.00;;;;;;4123222;28;21319;-86
2023/08/05 02:46:28;;;;;;;;;;;14.70;69.40;;;;;;4127550;28;19926;-83
2023/08/05 02:48:28;;;;;;;;;;;14.80;70.80;;;;;;4120841;28;20038;-84
2023/08/05 02:50:29;;;;;;;;;;;14.80;70.30;;;;;;4125595;28;19914;-84
2023/08/05 02:52:29;;;;;;;;;;;14.70;70.20;;;;;;4126741;28;19917;-85
2023/08/05 02:54:30;;;;;;;;;;;14.70;70.10;;;;;;4136561;28;20004;-84
2023/08/05 02:56:33;;;;;;;;;;;14.70;70.00;;;;;;4128575;28;20050;-86
2023/08/05 02:58:34;;;;;;;;;;;14.80;69.80;;;;;;4112662;28;20392;-84
2023/08/05 03:00:34;;;;;;;;;;;14.80;69.70;;;;;;4123633;28;19957;-84
2023/08/05 03:02:35;;;;;;;;;;;14.70;69.60;;;;;;4126059;28;19917;-84
2023/08/05 03:04:36;;;;;;;;;;;14.80;69.70;;;;;;4140467;28;19913;-85
2023/08/05 03:06:36;;;;;;;;;;;14.80;69.70;;;;;;4120568;28;19953;-86
2023/08/05 03:08:37;;;;;;;;;;;14.80;69.80;;;;;;4123340;28;20387;-87
2023/08/05 03:10:59;;;;;;;;;;;14.80;70.10;;;;;;4126564;28;19914;-84
2023/08/05 03:13:19;;;;;;;;;;;14.70;70.20;;;;;;4127862;28;20351;-84
2023/08/05 03:15:40;;;;;;;;;;;14.80;70.20;;;;;;4120647;28;20301;-85
2023/08/05 03:18:00;;;;;;;;;;;14.80;70.00;;;;;;4124659;28;20322;-84
2023/08/05 03:20:31;;;;;;;;;;;14.80;69.90;;;;;;4124629;28;20398;-86
2023/08/05 03:22:52;;;;;;;;;;;14.80;69.90;;;;;;4121519;28;19977;-84
2023/08/05 03:24:54;;;;;;;;;;;14.80;70.10;;;;;;4123260;28;19920;-84
2023/08/05 03:27:15;;;;;;;;;;;14.80;70.00;;;;;;4124217;28;19925;-86
2023/08/05 03:29:36;;;;;;;;;;;14.80;70.00;;;;;;4134586;28;19913;-84
2023/08/05 03:31:56;;;;;;;;;;;14.80;70.00;;;;;;4125886;28;19925;-84
2023/08/05 03:34:17;;;;;;;;;;;14.80;70.00;;;;;;4129121;28;19917;-83
2023/08/05 03:36:18;;;;;;;;;;;14.80;70.40;;;;;;4124536;28;19913;-83
2023/08/05 03:38:39;;;;;;;;;;;14.80;70.10;;;;;;4127847;28;19910;-84
2023/08/05 03:41:00;;;;;;;;;;;14.90;70.10;;;;;;4126373;28;20027;-83
2023/08/05 03:43:21;;;;;;;;;;;14.80;69.90;;;;;;4125007;28;19918;-83
2023/08/05 03:45:48;;;;;;;;;;;14.90;69.90;;;;;;4124983;28;19928;-83
2023/08/05 03:48:08;;;;;;;;;;;14.80;70.10;;;;;;4123639;28;19959;-84
2023/08/05 03:50:29;;;;;;;;;;;14.80;70.30;;;;;;4129398;28;20001;-84
2023/08/05 03:52:49;;;;;;;;;;;14.90;70.00;;;;;;4128203;28;19949;-84
2023/08/05 03:55:10;;;;;;;;;;;15.00;70.40;;;;;;4127542;28;19933;-84
2023/08/05 03:57:30;;;;;;;;;;;15.00;70.80;;;;;;4125446;28;19914;-85
2023/08/05 03:59:51;;;;;;;;;;;14.80;70.90;;;;;;4128193;28;19937;-85
2023/08/05 04:02:12;;;;;;;;;;;14.90;70.40;;;;;;4127270;28;19914;-84
2023/08/05 04:04:32;;;;;;;;;;;14.80;70.20;;;;;;4141870;28;19913;-83
2023/08/05 04:06:53;;;;;;;;;;;14.90;70.60;;;;;;4127804;28;19936;-83
2023/08/05 04:09:14;;;;;;;;;;;14.80;70.70;;;;;;4128005;28;19924;-86
2023/08/05 04:11:15;;;;;;;;;;;14.80;70.50;;;;;;4127787;28;19924;-82
2023/08/05 04:13:17;;;;;;;;;;;14.80;70.70;;;;;;4144951;28;19913;-84
2023/08/05 04:15:38;;;;;;;;;;;14.80;71.10;;;;;;4125498;28;19942;-85
2023/08/05 04:18:00;;;;;;;;;;;14.70;70.70;;;;;;4139061;28;19913;-86
2023/08/05 04:20:20;;;;;;;;;;;14.70;70.80;;;;;;4131072;28;19976;-85
2023/08/05 04:22:41;;;;;;;;;;;14.80;71.00;;;;;;4142872;28;19940;-83
2023/08/05 04:25:01;;;;;;;;;;;14.80;71.30;;;;;;4126796;28;19918;-84
2023/08/05 04:27:22;;;;;;;;;;;14.70;70.80;;;;;;4128432;28;19914;-84
2023/08/05 04:29:22;;;;;;;;;;;14.70;70.90;;;;;;4128545;28;19921;-86
2023/08/05 04:31:23;;;;;;;;;;;14.70;70.70;;;;;;4115123;28;20048;-84
2023/08/05 04:33:26;;;;;;;;;;;14.70;70.60;;;;;;4115797;28;19997;-83
2023/08/05 04:35:27;;;;;;;;;;;14.80;70.70;;;;;;4130007;28;20346;-84
2023/08/05 04:37:28;;;;;;;;;;;14.80;70.70;;;;;;4127348;28;19953;-84
2023/08/05 04:39:28;;;;;;;;;;;14.70;70.90;;;;;;4143610;28;19916;-83
2023/08/05 04:41:29;;;;;;;;;;;14.80;70.80;;;;;;4127516;28;20399;-83
2023/08/05 04:43:29;;;;;;;;;;;14.80;70.80;;;;;;4126108;28;19917;-83
2023/08/05 04:45:30;;;;;;;;;;;14.80;70.90;;;;;;4129674;28;20020;-86
2023/08/05 04:47:32;;;;;;;;;;;14.90;71.40;;;;;;4127467;28;19918;-85
2023/08/05 04:49:52;;;;;;;;;;;14.90;71.20;;;;;;4125796;28;19988;-84
2023/08/05 04:52:07;;;;;;;;;;;15.00;71.60;;;;;;4125552;28;19941;-83
2023/08/05 04:54:27;;;;;;;;;;;14.90;71.20;;;;;;4142334;28;20004;-84
2023/08/05 04:56:30;;;;;;;;;;;15.00;71.40;;;;;;4130882;28;19913;-83
2023/08/05 04:58:31;;;;;;;;;;;15.00;72.00;;;;;;4129991;28;20303;-83
2023/08/05 05:00:31;;;;;;;;;;;15.00;72.80;;;;;;4128817;28;19918;-83
2023/08/05 05:02:32;;;;;;;;;;;15.00;71.90;;;;;;4131029;28;19956;-85
2023/08/05 05:04:34;;;;;;;;;;;15.00;71.90;;;;;;4126563;28;20381;-83
2023/08/05 05:06:35;;;;;;;;;;;15.00;71.70;;;;;;4128611;28;20426;-84
2023/08/05 05:08:46;;;;;;;;;;;15.00;71.70;;;;;;4115162;28;19976;-83
2023/08/05 05:10:46;;;;;;;;;;;15.10;71.50;;;;;;4127879;28;19953;-84
2023/08/05 05:13:07;;;;;;;;;;;15.00;71.60;;;;;;4124459;28;19922;-85
2023/08/05 05:15:27;;;;;;;;;;;15.10;72.00;;;;;;4123284;28;19918;-84
2023/08/05 05:17:50;;;;;;;;;;;15.10;71.60;;;;;;4127236;28;19928;-84
2023/08/05 05:20:11;;;;;;;;;;;15.20;71.40;;;;;;4130315;28;19964;-84
2023/08/05 05:22:32;;;;;;;;;;;15.20;71.80;;;;;;4127982;28;19964;-83
2023/08/05 05:24:52;;;;;;;;;;;15.20;72.80;;;;;;4129249;28;19914;-84
2023/08/05 05:27:17;;;;;;;;;;;15.20;72.90;;;;;;4120772;28;19925;-84
2023/08/05 05:29:38;;;;;;;;;;;15.30;72.70;;;;;;4142635;28;19918;-88
2023/08/05 05:31:58;;;;;;;;;;;15.40;72.90;;;;;;4148677;28;19995;-87
2023/08/05 05:34:19;;;;;;;;;;;15.40;72.50;;;;;;4161517;28;19909;-88
2023/08/05 05:36:39;;;;;;;;;;;15.60;72.70;;;;;;4147906;28;19902;-87
2023/08/05 05:39:00;;;;;;;;;;;15.60;72.80;;;;;;4144521;28;19966;-87
2023/08/05 05:41:20;;;;;;;;;;;15.60;72.50;;;;;;4163307;28;19932;-86
2023/08/05 05:43:42;;;;;;;;;;;15.70;72.00;;;;;;4144145;28;19917;-88
2023/08/05 05:45:46;;;;;;;;;;;15.60;72.10;;;;;;4145466;28;19906;-88
2023/08/05 05:47:47;;;;;;;;;;;15.70;72.00;;;;;;4151748;28;20366;-84
2023/08/05 05:49:48;;;;;;;;;;;15.70;72.00;;;;;;4127221;28;20024;-86
2023/08/05 05:51:48;;;;;;;;;;;15.70;71.60;;;;;;4130184;28;19918;-84
2023/08/05 05:53:51;;;;;;;;;;;15.70;71.50;;;;;;4143777;28;20394;-84
2023/08/05 05:55:53;;;;;;;;;;;15.80;71.70;;;;;;4130868;28;19922;-84
2023/08/05 05:57:54;;;;;;;;;;;15.70;71.40;;;;;;4123796;28;19910;-86
2023/08/05 05:59:55;;;;;;;;;;;15.80;71.90;;;;;;4123686;28;19918;-84
2023/08/05 06:01:56;;;;;;;;;;;15.80;71.80;;;;;;4129627;28;19914;-83
2023/08/05 06:04:18;;;;;;;;;;;15.80;72.30;;;;;;4124957;28;19910;-84
2023/08/05 06:06:20;;;;;;;;;;;15.80;72.10;;;;;;4128632;28;19953;-83
2023/08/05 06:08:41;;;;;;;;;;;15.80;72.50;;;;;;4123550;28;19968;-86
2023/08/05 06:11:07;;;;;;;;;;;15.90;71.90;;;;;;4123785;28;19979;-83
2023/08/05 06:13:27;;;;;;;;;;;16.00;72.00;;;;;;4127918;28;19914;-84
2023/08/05 06:15:48;;;;;;;;;;;16.10;72.50;;;;;;4140493;28;19917;-85
2023/08/05 06:18:01;;;;;;;;;;;16.20;72.30;;;;;;4128167;28;19978;-84
2023/08/05 06:20:03;;;;;;;;;;;16.20;72.10;;;;;;4128054;28;19918;-84
2023/08/05 06:22:05;;;;;;;;;;;16.30;72.80;;;;;;4127361;28;19921;-84
2023/08/05 06:24:25;;;;;;;;;;;16.40;72.80;;;;;;4122748;28;19922;-85
2023/08/05 06:26:46;;;;;;;;;;;16.50;73.00;;;;;;4127370;28;20002;-85
2023/08/05 06:28:47;;;;;;;;;;;16.70;72.70;;;;;;4111028;28;19933;-84
2023/08/05 06:31:07;;;;;;;;;;;16.70;72.30;;;;;;4125978;28;19968;-84
2023/08/05 06:33:28;;;;;;;;;;;16.70;72.40;;;;;;4175431;22;19926;-85
2023/08/05 06:35:48;;;;;;;;;;;16.80;71.90;;;;;;4145887;28;19918;-86
2023/08/05 06:38:09;;;;;;;;;;;16.90;71.50;;;;;;4138802;28;19953;-86
2023/08/05 06:40:29;;;;;;;;;;;16.90;71.10;;;;;;4125252;28;19945;-86
2023/08/05 06:42:50;;;;;;;;;;;17.00;70.80;;;;;;4126860;28;19920;-85
2023/08/05 06:44:58;;;;;;;;;;;17.00;71.20;;;;;;4229918;27;20407;-86
2023/08/05 06:46:59;;;;;;;;;;;17.00;70.20;;;;;;4224499;28;19995;-85
2023/08/05 06:49:01;;;;;;;;;;;17.10;70.00;;;;;;4208213;28;19913;-86
2023/08/05 06:51:23;;;;;;;;;;;17.10;69.80;;;;;;4220036;28;19915;-87
2023/08/05 06:53:44;;;;;;;;;;;17.10;69.70;;;;;;4227953;27;20427;-87
2023/08/05 06:56:05;;;;;;;;;;;17.20;69.10;;;;;;4237240;27;19920;-85
2023/08/05 06:58:25;;;;;;;;;;;17.20;68.90;;;;;;4238191;27;20385;-86
2023/08/05 07:00:51;;;;;;;;;;;17.20;68.90;;;;;;4236576;27;19916;-85
2023/08/05 07:03:11;;;;;;;;;;;17.30;68.80;;;;;;4235706;27;19919;-86
2023/08/05 07:05:32;;;;;;;;;;;17.30;68.60;;;;;;4237431;27;20013;-86
2023/08/05 07:07:53;;;;;;;;;;;17.40;68.00;;;;;;4225796;28;19957;-86
2023/08/05 07:10:11;;;;;;;;;;;17.40;67.80;;;;;;4222922;27;20487;-87
2023/08/05 07:12:12;;;;;;;;;;;17.50;67.80;;;;;;4224077;28;19959;-86
2023/08/05 07:14:12;;;;;;;;;;;17.50;67.60;;;;;;4238218;27;20032;-85
2023/08/05 07:16:14;;;;;;;;;;;17.60;67.80;;;;;;4235984;27;19912;-87
2023/08/05 07:18:35;;;;;;;;;;;17.60;67.80;;;;;;4235686;27;19908;-86
2023/08/05 07:20:55;;;;;;;;;;;17.70;67.60;;;;;;4226325;28;19912;-86
2023/08/05 07:22:56;;;;;;;;;;;17.80;66.30;;;;;;4235318;27;20392;-87
2023/08/05 07:25:16;;;;;;;;;;;17.90;66.10;;;;;;4236855;27;19916;-85
2023/08/05 07:27:37;;;;;;;;;;;17.90;66.40;;;;;;4236170;27;19918;-84
2023/08/05 07:29:57;;;;;;;;;;;18.10;66.90;;;;;;4236541;27;19919;-85
2023/08/05 07:32:18;;;;;;;;;;;18.10;66.90;;;;;;4235161;27;19908;-85
2023/08/05 07:34:39;;;;;;;;;;;18.20;66.60;;;;;;4235763;27;19920;-86
2023/08/05 07:36:59;;;;;;;;;;;18.30;64.50;;;;;;4234816;27;20002;-86
2023/08/05 07:39:20;;;;;;;;;;;18.40;64.60;;;;;;4224525;27;19962;-87
2023/08/05 07:41:41;;;;;;;;;;;18.40;62.70;;;;;;4235978;27;19908;-86
2023/08/05 07:44:03;;;;;;;;;;;18.50;63.60;;;;;;4236393;27;19919;-86
2023/08/05 07:46:05;;;;;;;;;;;18.60;64.50;;;;;;4236299;27;19916;-86
2023/08/05 07:48:08;;;;;;;;;;;18.70;64.90;;;;;;4222089;28;20404;-86
2023/08/05 07:50:20;;;;;;;;;;;18.80;64.40;;;;;;4237482;27;19916;-87
2023/08/05 07:52:20;;;;;;;;;;;18.80;64.10;;;;;;4237893;27;19919;-86
2023/08/05 07:54:21;;;;;;;;;;;18.80;64.10;;;;;;4236161;27;19954;-86
2023/08/05 07:56:22;;;;;;;;;;;18.90;64.30;;;;;;4225913;27;19964;-86
2023/08/05 07:58:23;;;;;;;;;;;19.00;64.50;;;;;;4225724;27;19965;-86
2023/08/05 08:00:26;;;;;;;;;;;19.10;64.70;;;;;;4208148;28;20460;-86
2023/08/05 08:02:28;;;;;;;;;;;19.20;64.50;;;;;;4244856;27;19935;-84
2023/08/05 08:04:32;;;;;;;;;;;19.20;63.60;;;;;;4207048;28;19916;-85
2023/08/05 08:06:53;;;;;;;;;;;19.30;64.10;;;;;;4215814;27;20178;-87
2023/08/05 08:09:13;;;;;;;;;;;19.40;62.70;;;;;;4227853;27;19935;-87
2023/08/05 08:11:34;;;;;;;;;;;19.50;62.30;;;;;;4212840;28;19912;-85
2023/08/05 08:13:54;;;;;;;;;;;19.60;62.60;;;;;;4210662;28;19916;-86
2023/08/05 08:16:15;;;;;;;;;;;19.60;62.30;;;;;;4224224;27;20003;-86
2023/08/05 08:18:36;;;;;;;;;;;19.70;62.60;;;;;;4226638;27;19947;-87
2023/08/05 08:20:57;;;;;;;;;;;19.80;59.80;;;;;;4223127;28;19912;-86
2023/08/05 08:23:17;;;;;;;;;;;19.90;61.00;;;;;;4227322;27;19931;-87
2023/08/05 08:25:18;;;;;;;;;;;19.90;59.80;;;;;;4225043;27;20292;-87
2023/08/05 08:27:18;;;;;;;;;;;20.00;60.60;;;;;;4226812;27;19937;-87
2023/08/05 08:29:19;;;;;;;;;;;20.10;59.40;;;;;;4222915;27;19930;-85
2023/08/05 08:31:19;;;;;;;;;;;20.10;61.20;;;;;;4226895;27;20338;-86
2023/08/05 08:33:21;;;;;;;;;;;20.20;61.70;;;;;;4226923;27;19918;-86
2023/08/05 08:35:22;;;;;;;;;;;20.20;61.10;;;;;;4225115;27;19908;-87
2023/08/05 08:37:22;;;;;;;;;;;20.30;60.90;;;;;;4210801;28;19944;-87
2023/08/05 08:39:23;;;;;;;;;;;20.40;60.00;;;;;;4241225;27;19974;-86
2023/08/05 08:41:24;;;;;;;;;;;20.40;59.10;;;;;;4193818;28;19909;-87
2023/08/05 08:43:30;;;;;;;;;;;20.50;58.70;;;;;;4207142;28;19927;-87
2023/08/05 08:45:51;;;;;;;;;;;20.60;59.60;;;;;;4209378;28;19920;-87
2023/08/05 08:48:12;;;;;;;;;;;20.60;59.70;;;;;;4222053;28;20055;-85
2023/08/05 08:50:34;;;;;;;;;;;20.70;59.70;;;;;;4224756;27;19912;-88
2023/08/05 08:52:57;;;;;;;;;;;20.60;58.60;;;;;;4224339;28;19920;-86
2023/08/05 08:55:18;;;;;;;;;;;20.70;59.70;;;;;;4210264;28;19923;-86
2023/08/05 08:57:39;;;;;;;;;;;20.80;59.90;;;;;;4209905;28;19916;-87
2023/08/05 08:59:59;;;;;;;;;;;20.80;59.60;;;;;;4222124;27;19950;-88
2023/08/05 09:02:24;;;;;;;;;;;20.90;58.50;;;;;;4221751;27;19919;-88
2023/08/05 09:04:46;;;;;;;;;;;20.90;59.30;;;;;;4222532;28;19923;-88
2023/08/05 09:07:07;;;;;;;;;;;20.90;58.90;;;;;;4221950;28;19994;-86
2023/08/05 09:09:08;;;;;;;;;;;21.00;59.30;;;;;;4228115;27;19929;-87
2023/08/05 09:11:09;;;;;;;;;;;21.10;59.50;;;;;;4210507;28;19912;-87
2023/08/05 09:13:10;;;;;;;;;;;21.00;59.20;;;;;;4225263;27;19942;-88
2023/08/05 09:15:13;;;;;;;;;;;21.10;58.00;;;;;;4225219;27;19916;-87
2023/08/05 09:17:14;;;;;;;;;;;21.10;58.40;;;;;;4220925;27;19919;-89
2023/08/05 09:19:23;;;;;;;;;;;21.20;57.70;;;;;;4210196;28;19908;-87
2023/08/05 09:21:24;;;;;;;;;;;21.20;58.70;;;;;;4206543;28;19912;-87
2023/08/05 09:23:24;;;;;;;;;;;21.30;57.90;;;;;;4223566;27;19924;-87
2023/08/05 09:25:25;;;;;;;;;;;21.40;58.80;;;;;;4207481;28;19916;-88
2023/08/05 09:27:26;;;;;;;;;;;21.40;59.20;;;;;;4221671;28;20338;-87
2023/08/05 09:29:49;;;;;;;;;;;21.50;59.30;;;;;;4207679;28;19927;-87
2023/08/05 09:32:11;;;;;;;;;;;21.50;58.30;;;;;;4207352;28;19975;-86
2023/08/05 09:34:32;;;;;;;;;;;21.70;58.90;;;;;;4224071;28;19912;-86
2023/08/05 09:36:53;;;;;;;;;;;21.80;58.20;;;;;;4230168;27;19930;-87
2023/08/05 09:39:16;;;;;;;;;;;21.90;57.60;;;;;;4242400;28;19920;-86
2023/08/05 09:41:37;;;;;;;;;;;22.00;58.60;;;;;;4227430;27;19919;-88
2023/08/05 09:43:58;;;;;;;;;;;22.00;58.20;;;;;;4225800;27;20719;-84
2023/08/05 09:46:20;;;;;;;;;;;22.00;57.70;;;;;;4222817;27;19908;-86
2023/08/05 09:48:42;;;;;;;;;;;22.10;57.60;;;;;;4222858;27;20607;-86
2023/08/05 09:51:04;;;;;;;;;;;22.20;57.60;;;;;;4211765;28;19916;-87
2023/08/05 09:53:29;;;;;;;;;;;22.20;56.20;;;;;;4223396;28;19966;-87
2023/08/05 09:55:49;;;;;;;;;;;22.30;55.20;;;;;;4226055;27;19939;-86
2023/08/05 09:58:10;;;;;;;;;;;22.40;55.10;;;;;;4227547;28;19908;-87
2023/08/05 10:00:32;;;;;;;;;;;22.40;53.80;;;;;;4223476;27;19919;-86
2023/08/05 10:02:54;;;;;;;;;;;22.40;53.70;;;;;;4221006;27;19994;-87
2023/08/05 10:05:12;;;;;;;;;;;22.40;55.40;;;;;;4223070;28;20369;-87
2023/08/05 10:07:14;;;;;;;;;;;22.40;54.80;;;;;;4223179;28;19912;-87
2023/08/05 10:09:14;;;;;;;;;;;22.40;54.00;;;;;;4205046;28;19912;-86
2023/08/05 10:11:15;;;;;;;;;;;22.40;55.30;;;;;;4200867;28;20367;-86
2023/08/05 10:13:17;;;;;;;;;;;22.30;55.40;;;;;;4218291;28;19970;-86
2023/08/05 10:15:25;;;;;;;;;;;22.30;55.50;;;;;;4209496;28;19908;-86
2023/08/05 10:17:46;;;;;;;;;;;22.30;55.50;;;;;;4222292;27;19967;-87
2023/08/05 10:20:11;;;;;;;;;;;22.20;55.30;;;;;;4223776;27;19919;-87
2023/08/05 10:22:32;;;;;;;;;;;22.10;55.20;;;;;;4223276;28;19919;-86
2023/08/05 10:24:54;;;;;;;;;;;22.00;54.80;;;;;;4223752;28;19930;-86
2023/08/05 10:27:14;;;;;;;;;;;21.90;54.40;;;;;;4207599;28;19958;-86
2023/08/05 10:29:49;;;;;;;;;;;21.90;54.60;;;;;;4223148;28;19915;-87
2023/08/05 10:32:10;;;;;;;;;;;21.80;53.90;;;;;;4209023;28;19937;-87
2023/08/05 10:34:31;;;;;;;;;;;21.70;54.20;;;;;;4219847;28;19951;-86
2023/08/05 10:36:56;;;;;;;;;;;21.70;54.30;;;;;;4205278;28;19960;-87
2023/08/05 10:39:36;;;;;;;;;;;21.60;54.40;;;;;;4222501;28;19934;-87
2023/08/05 10:41:55;;;;;;;;;;;21.50;54.20;;;;;;4204380;28;19916;-87
2023/08/05 10:44:18;;;;;;;;;;;21.50;54.30;;;;;;4223065;28;19924;-86
2023/08/05 10:46:38;;;;;;;;;;;21.40;54.30;;;;;;4223654;28;19912;-86
2023/08/05 10:48:59;;;;;;;;;;;21.40;54.30;;;;;;4223923;28;19961;-87
2023/08/05 10:51:20;;;;;;;;;;;21.30;54.30;;;;;;4223008;28;19951;-87
2023/08/05 10:53:58;;;;;;;;;;;21.30;54.40;;;;;;4224400;28;19907;-87
2023/08/05 10:56:18;;;;;;;;;;;21.20;54.40;;;;;;4225738;28;19908;-87
2023/08/05 10:58:44;;;;;;;;;;;21.20;54.80;;;;;;4222245;28;19918;-87
2023/08/05 11:01:05;;;;;;;;;;;21.20;54.90;;;;;;4225077;28;19915;-86
2023/08/05 11:03:40;;;;;;;;;;;21.20;54.90;;;;;;4221838;28;19957;-87
2023/08/05 11:06:02;;;;;;;;;;;21.10;55.10;;;;;;4211148;28;19963;-86
2023/08/05 11:08:22;;;;;;;;;;;21.20;55.40;;;;;;4223545;28;19913;-87
2023/08/05 11:10:44;;;;;;;;;;;21.10;55.40;;;;;;4223734;28;19908;-88
2023/08/05 11:13:05;;;;;;;;;;;21.10;55.50;;;;;;4222048;28;19912;-87
2023/08/05 11:15:25;;;;;;;;;;;21.10;55.20;;;;;;4221573;28;19923;-86
2023/08/05 11:17:53;;;;;;;;;;;21.10;55.30;;;;;;4221831;28;19916;-87
2023/08/05 11:20:14;;;;;;;;;;;21.10;55.50;;;;;;4205793;28;19961;-86
2023/08/05 11:22:36;;;;;;;;;;;21.10;55.80;;;;;;4208483;28;19920;-87
2023/08/05 11:24:57;;;;;;;;;;;21.10;56.00;;;;;;4208791;28;19927;-87
2023/08/05 11:27:17;;;;;;;;;;;21.10;56.20;;;;;;4222727;28;19912;-86
2023/08/05 11:29:33;;;;;;;;;;;21.00;56.20;;;;;;4223305;28;19956;-87
2023/08/05 11:31:33;;;;;;;;;;;21.00;56.50;;;;;;4225604;27;19918;-87
2023/08/05 11:33:34;;;;;;;;;;;21.00;56.60;;;;;;4209476;28;19912;-86
2023/08/05 11:35:41;;;;;;;;;;;20.90;57.10;;;;;;4224668;28;19908;-87
2023/08/05 11:37:41;;;;;;;;;;;20.90;57.40;;;;;;4227709;27;20003;-87
2023/08/05 11:39:43;;;;;;;;;;;20.90;57.30;;;;;;4223647;27;19911;-87
2023/08/05 11:41:44;;;;;;;;;;;20.90;57.60;;;;;;4205722;28;19916;-86
2023/08/05 11:43:44;;;;;;;;;;;20.80;57.70;;;;;;4223405;27;20438;-87
2023/08/05 11:45:46;;;;;;;;;;;20.80;58.00;;;;;;4226790;27;20413;-87
2023/08/05 11:47:53;;;;;;;;;;;20.80;58.60;;;;;;4208514;28;19930;-87
2023/08/05 11:50:14;;;;;;;;;;;20.80;58.70;;;;;;4224384;28;19965;-88
2023/08/05 11:52:35;;;;;;;;;;;20.80;59.50;;;;;;4227051;27;19957;-86
2023/08/05 11:54:35;;;;;;;;;;;20.80;59.50;;;;;;4194401;28;19920;-86
2023/08/05 11:56:56;;;;;;;;;;;20.90;59.90;;;;;;4226492;27;19926;-87
2023/08/05 11:59:17;;;;;;;;;;;21.00;60.30;;;;;;4212087;28;19908;-88
2023/08/05 12:01:39;;;;;;;;;;;21.00;60.40;;;;;;4225994;27;19915;-86
2023/08/05 12:03:51;;;;;;;;;;;21.00;59.80;;;;;;4207558;28;19985;-86
2023/08/05 12:06:12;;;;;;;;;;;21.10;59.80;;;;;;4221432;27;19919;-88
2023/08/05 12:08:42;;;;;;;;;;;21.20;59.60;;;;;;4214770;28;19919;-87
2023/08/05 12:11:02;;;;;;;;;;;21.20;59.30;;;;;;4224857;28;19912;-87
2023/08/05 12:13:23;;;;;;;;;;;21.20;59.20;;;;;;4228478;27;20442;-87
2023/08/05 12:15:43;;;;;;;;;;;21.20;59.30;;;;;;4225649;28;19916;-87
2023/08/05 12:18:06;;;;;;;;;;;21.30;59.50;;;;;;4221392;27;19922;-87
2023/08/05 12:20:27;;;;;;;;;;;21.30;59.30;;;;;;4224424;28;19919;-87
2023/08/05 12:22:48;;;;;;;;;;;21.30;59.10;;;;;;4228996;27;19912;-88
2023/08/05 12:24:50;;;;;;;;;;;21.40;58.90;;;;;;4193811;28;20024;-89
2023/08/05 12:26:51;;;;;;;;;;;21.40;58.50;;;;;;4222354;27;19908;-88
2023/08/05 12:28:52;;;;;;;;;;;21.50;58.40;;;;;;4206779;28;19970;-88
2023/08/05 12:30:58;;;;;;;;;;;21.50;58.10;;;;;;4207212;28;19912;-88
2023/08/05 12:35:40;;;;;;;;;;;21.50;57.50;;;;;;4246932;22;20289;-87
2023/08/05 12:38:01;;;;;;;;;;;21.50;57.50;;;;;;4208059;28;19912;-85
2023/08/05 12:40:22;;;;;;;;;;;21.40;57.30;;;;;;4205681;28;20330;-87
2023/08/05 12:42:45;;;;;;;;;;;21.40;57.30;;;;;;4189282;28;20341;-87
2023/08/05 12:45:07;;;;;;;;;;;21.40;57.40;;;;;;4175582;28;20294;-86
2023/08/05 12:47:27;;;;;;;;;;;21.30;57.50;;;;;;4183372;28;19986;-86
2023/08/05 12:50:04;;;;;;;;;;;21.30;57.70;;;;;;4192207;28;20373;-86
2023/08/05 12:52:28;;;;;;;;;;;21.30;57.90;;;;;;4191603;28;19947;-86
2023/08/05 12:54:54;;;;;;;;;;;21.30;58.00;;;;;;4191964;28;20266;-87